Time;durP1;ratioP1;P1;durP2;ratioP2;P2;SDS_P1;SDS_P2;PMS_P1;PMS_P2;Temp;Humidity;BMP_temperature;BMP_pressure;BME280_temperature;BME280_humidity;BME280_pressure;Samples;Min_cycle;Max_cycle;Signal;HPM_P1;HPM_P2
2022/05/06 00:01:50;;;;;;;3.6;3.3;;;;;;;;;;;;;
2022/05/06 00:04:38;;;;;;;3.6;3.3;;;;;;;;;;;;;
2022/05/06 00:07:07;;;;;;;3.3;3;;;;;;;;;;;;;
2022/05/06 00:09:36;;;;;;;3.4;3.1;;;;;;;;;;;;;
2022/05/06 00:12:10;;;;;;;3.6;3.2;;;;;;;;;;;;;
2022/05/06 00:14:40;;;;;;;2.8;2.6;;;;;;;;;;;;;
2022/05/06 00:17:09;;;;;;;2.8;2.6;;;;;;;;;;;;;
2022/05/06 00:19:41;;;;;;;3.8;3.4;;;;;;;;;;;;;
2022/05/06 00:22:10;;;;;;;3.4;3.1;;;;;;;;;;;;;
2022/05/06 00:24:40;;;;;;;3.6;3.3;;;;;;;;;;;;;
2022/05/06 00:27:10;;;;;;;3.7;3.4;;;;;;;;;;;;;
2022/05/06 00:29:39;;;;;;;3.4;3.1;;;;;;;;;;;;;
2022/05/06 00:32:09;;;;;;;3.6;3.3;;;;;;;;;;;;;
2022/05/06 00:34:56;;;;;;;3.9;3.1;;;;;;;;;;;;;
2022/05/06 00:37:25;;;;;;;3.2;2.9;;;;;;;;;;;;;
2022/05/06 00:39:54;;;;;;;3.2;2.9;;;;;;;;;;;;;
2022/05/06 00:42:24;;;;;;;4.9;3.6;;;;;;;;;;;;;
2022/05/06 00:44:53;;;;;;;3.6;3.3;;;;;;;;;;;;;
2022/05/06 00:47:29;;;;;;;3.5;3.2;;;;;;;;;;;;;
2022/05/06 00:50:01;;;;;;;3.5;3.2;;;;;;;;;;;;;
2022/05/06 00:52:31;;;;;;;5.1;3.9;;;;;;;;;;;;;
2022/05/06 00:55:00;;;;;;;4.6;3.8;;;;;;;;;;;;;
2022/05/06 00:57:31;;;;;;;4.2;3.8;;;;;;;;;;;;;
2022/05/06 01:02:31;;;;;;;3.6;3.2;;;;;;;;;;;;;
2022/05/06 01:04:56;;;;;;;5.8;3.6;;;;;;;;;;;;;
2022/05/06 01:07:25;;;;;;;3.6;3.3;;;;;;;;;;;;;
2022/05/06 01:09:58;;;;;;;3.5;3.2;;;;;;;;;;;;;
2022/05/06 01:12:29;;;;;;;3.8;3.1;;;;;;;;;;;;;
2022/05/06 01:14:56;;;;;;;3.8;3.4;;;;;;;;;;;;;
2022/05/06 01:17:30;;;;;;;4.3;3.5;;;;;;;;;;;;;
2022/05/06 01:20:02;;;;;;;4.4;3.7;;;;;;;;;;;;;
2022/05/06 01:22:34;;;;;;;3.8;3.4;;;;;;;;;;;;;
2022/05/06 01:25:04;;;;;;;3.8;3.4;;;;;;;;;;;;;
2022/05/06 01:27:29;;;;;;;4.1;3.7;;;;;;;;;;;;;
2022/05/06 01:30:00;;;;;;;3.9;3.6;;;;;;;;;;;;;
2022/05/06 01:32:25;;;;;;;4.8;3.8;;;;;;;;;;;;;
2022/05/06 01:34:53;;;;;;;4.4;3.7;;;;;;;;;;;;;
2022/05/06 01:37:18;;;;;;;4.2;3.5;;;;;;;;;;;;;
2022/05/06 01:39:48;;;;;;;4.7;4.3;;;;;;;;;;;;;
2022/05/06 01:42:12;;;;;;;4.5;4.1;;;;;;;;;;;;;
2022/05/06 01:44:37;;;;;;;4.3;3.9;;;;;;;;;;;;;
2022/05/06 01:47:02;;;;;;;3.7;3.4;;;;;;;;;;;;;
2022/05/06 01:49:28;;;;;;;5.7;3.9;;;;;;;;;;;;;
2022/05/06 01:51:54;;;;;;;4.6;4.2;;;;;;;;;;;;;
2022/05/06 01:54:19;;;;;;;4.9;4;;;;;;;;;;;;;
2022/05/06 01:56:46;;;;;;;4.2;3.8;;;;;;;;;;;;;
2022/05/06 01:59:11;;;;;;;4.6;4.2;;;;;;;;;;;;;
2022/05/06 02:01:37;;;;;;;4.8;4.1;;;;;;;;;;;;;
2022/05/06 02:06:28;;;;;;;4.3;3.9;;;;;;;;;;;;;
2022/05/06 02:08:54;;;;;;;4.4;3.8;;;;;;;;;;;;;
2022/05/06 02:11:19;;;;;;;4;3.6;;;;;;;;;;;;;
2022/05/06 02:13:44;;;;;;;3.9;3.5;;;;;;;;;;;;;
2022/05/06 02:16:09;;;;;;;5.1;3.8;;;;;;;;;;;;;
2022/05/06 02:18:52;;;;;;;4.5;3.5;;;;;;;;;;;;;
2022/05/06 02:21:18;;;;;;;4.2;3.8;;;;;;;;;;;;;
2022/05/06 02:23:43;;;;;;;4.3;3.9;;;;;;;;;;;;;
2022/05/06 02:26:09;;;;;;;4.3;3.9;;;;;;;;;;;;;
2022/05/06 02:28:34;;;;;;;5.3;4.5;;;;;;;;;;;;;
2022/05/06 02:33:26;;;;;;;4.5;4.1;;;;;;;;;;;;;
2022/05/06 02:35:51;;;;;;;4.2;3.8;;;;;;;;;;;;;
2022/05/06 02:38:17;;;;;;;4.5;4.1;;;;;;;;;;;;;
2022/05/06 03:51:52;;;;;;;4.1;3.7;;;;;;;;;;;;;
2022/05/06 03:54:17;;;;;;;4.4;4;;;;;;;;;;;;;
2022/05/06 03:56:43;;;;;;;13.7;10;;;;;;;;;;;;;
2022/05/06 03:59:09;;;;;;;7.7;6.3;;;;;;;;;;;;;
2022/05/06 04:02:37;;;;;;;6;5;;;;;;;11.75;94.67773;940.6852;;;;
2022/05/06 04:05:07;;;;;;;4.6;4.1;;;;;;;11.88;94.17871;940.7332;;;;
2022/05/06 04:07:33;;;;;;;5.5;4.6;;;;;;;11.95;93.74805;940.7307;;;;
2022/05/06 04:10:02;;;;;;;4.4;4;;;;;;;12.04;93.36621;940.734;;;;
2022/05/06 04:12:28;;;;;;;4.8;4.2;;;;;;;12.06;92.96875;940.6344;;;;
2022/05/06 04:14:52;;;;;;;4.4;4;;;;;;;12.18;92.3291;940.6129;;;;
2022/05/06 04:17:17;;;;;;;4.7;3.9;;;;;;;12.22;91.70898;940.6606;;;;
2022/05/06 04:24:39;;;;;;;4.5;4.1;;;;;;;12.21;91.17969;940.7664;;;;
2022/05/06 04:27:04;;;;;;;4.7;4.1;;;;;;;12.26;91.14355;940.7447;;;;
2022/05/06 04:29:34;;;;;;;4.2;3.8;;;;;;;12.22;90.98633;940.7252;;;;
2022/05/06 04:31:59;;;;;;;4.5;4;;;;;;;12.23;91.36719;940.782;;;;
2022/05/06 04:34:28;;;;;;;5;4;;;;;;;12.25;91.55176;940.802;;;;
2022/05/06 04:36:58;;;;;;;4.4;4;;;;;;;12.25;91.88867;940.7726;;;;
2022/05/06 04:39:27;;;;;;;5.7;4.2;;;;;;;12.22;92.0293;940.7117;;;;
2022/05/06 04:41:52;;;;;;;4.8;4.4;;;;;;;12.22;92.19922;940.7372;;;;
2022/05/06 04:44:20;;;;;;;5.1;4.6;;;;;;;12.29;91.90723;940.7456;;;;
2022/05/06 04:46:46;;;;;;;4.6;4.2;;;;;;;12.33;91.75488;940.8314;;;;
2022/05/06 04:49:17;;;;;;;4.8;4.3;;;;;;;12.35;91.62109;940.8722;;;;
2022/05/06 04:51:46;;;;;;;5;4.4;;;;;;;12.34;91.85938;940.9144;;;;
2022/05/06 04:54:13;;;;;;;6.6;4.9;;;;;;;12.43;91.60156;940.8331;;;;
2022/05/06 04:56:39;;;;;;;5;4.2;;;;;;;12.43;91.28223;940.9114;;;;
2022/05/06 04:59:04;;;;;;;5.5;5;;;;;;;12.4;91.57324;940.9636;;;;
2022/05/06 05:01:33;;;;;;;5.6;5;;;;;;;12.47;91.34766;940.926;;;;
2022/05/06 05:03:59;;;;;;;6.4;5.6;;;;;;;12.37;91.49805;940.957;;;;
2022/05/06 05:06:23;;;;;;;6.9;6.1;;;;;;;12.46;91.2207;940.9922;;;;
2022/05/06 05:08:48;;;;;;;6.2;5.6;;;;;;;12.52;90.7627;940.9407;;;;
2022/05/06 05:11:13;;;;;;;7;5.9;;;;;;;12.59;90.26074;940.8756;;;;
2022/05/06 05:13:43;;;;;;;6.9;6.2;;;;;;;12.63;89.94727;940.8889;;;;
2022/05/06 05:16:07;;;;;;;7.2;5.8;;;;;;;12.68;89.61426;940.9172;;;;
2022/05/06 05:18:34;;;;;;;6.5;5.9;;;;;;;12.56;89.77148;940.9433;;;;
2022/05/06 05:20:58;;;;;;;6.2;5.6;;;;;;;12.65;89.90527;940.9314;;;;
2022/05/06 05:23:29;;;;;;;6.7;5.8;;;;;;;12.69;89.54785;940.9084;;;;
2022/05/06 05:25:53;;;;;;;6;5.4;;;;;;;12.68;89.72949;940.9252;;;;
2022/05/06 05:28:19;;;;;;;6.5;5.8;;;;;;;12.64;90.13281;940.9481;;;;
2022/05/06 05:30:44;;;;;;;7;6.3;;;;;;;12.63;90.48633;940.9393;;;;
2022/05/06 05:33:12;;;;;;;7;6.3;;;;;;;12.63;90.77539;940.9833;;;;
2022/05/06 05:35:38;;;;;;;6.6;6;;;;;;;12.47;91.70313;940.9372;;;;
2022/05/06 05:38:06;;;;;;;6.8;6.1;;;;;;;12.7;91.13281;940.8317;;;;
2022/05/06 05:41:35;;;;;;;6.4;5.8;;;;;;;12.82;90.73438;940.8494;;;;
2022/05/06 05:48:56;;;;;;;7.1;6.4;;;;;;;12.92;89.16895;940.9426;;;;
2022/05/06 05:51:26;;;;;;;6;5.3;;;;;;;12.93;88.96387;940.9602;;;;
2022/05/06 05:53:51;;;;;;;6.7;5.6;;;;;;;12.73;89.6582;940.9214;;;;
2022/05/06 05:56:17;;;;;;;5.7;5.1;;;;;;;12.77;89.46094;940.9615;;;;
2022/05/06 05:58:42;;;;;;;6;5.3;;;;;;;12.78;89.2793;940.9369;;;;
2022/05/06 06:01:14;;;;;;;5.3;4.8;;;;;;;12.84;88.83105;940.9495;;;;
2022/05/06 06:03:38;;;;;;;5.3;4.8;;;;;;;12.78;88.98047;940.9489;;;;
2022/05/06 06:06:06;;;;;;;5.3;4.8;;;;;;;12.72;89.20898;941.0092;;;;
2022/05/06 06:08:31;;;;;;;5.8;5.2;;;;;;;12.8;89.27148;941.0824;;;;
2022/05/06 06:11:01;;;;;;;5.5;5;;;;;;;12.65;89.05664;941.1208;;;;
2022/05/06 06:13:23;;;;;;;4.8;4.4;;;;;;;12.74;89.39648;941.0453;;;;
2022/05/06 06:15:55;;;;;;;5.4;4.9;;;;;;;12.8;89.25977;941.032;;;;
2022/05/06 06:18:26;;;;;;;6.2;4.9;;;;;;;12.89;88.98145;941.0632;;;;
2022/05/06 06:20:46;;;;;;;5.1;4.6;;;;;;;12.98;88.68848;941.0995;;;;
2022/05/06 06:23:14;;;;;;;5.5;5;;;;;;;12.82;88.94434;941.1428;;;;
2022/05/06 06:25:39;;;;;;;5.6;5.1;;;;;;;12.74;89.90234;941.1172;;;;
2022/05/06 06:28:04;;;;;;;5.6;5.1;;;;;;;12.85;89.9707;941.087;;;;
2022/05/06 06:30:29;;;;;;;5.6;4.6;;;;;;;13.01;89.55469;941.0821;;;;
2022/05/06 06:32:54;;;;;;;5;4.5;;;;;;;13.09;88.79102;941.0556;;;;
2022/05/06 06:35:23;;;;;;;5.1;4.6;;;;;;;13.06;88.2207;941.1586;;;;
2022/05/06 06:37:48;;;;;;;5.1;4.6;;;;;;;13.01;88.27051;941.1464;;;;
2022/05/06 06:40:18;;;;;;;5.6;5.1;;;;;;;13.09;88.31055;941.1987;;;;
2022/05/06 06:42:46;;;;;;;5.5;4.9;;;;;;;13.14;87.69922;941.1781;;;;
2022/05/06 06:45:12;;;;;;;5.9;5.3;;;;;;;13.17;87.72754;941.1878;;;;
2022/05/06 06:47:39;;;;;;;5.8;5;;;;;;;13.07;88.04102;941.2147;;;;
2022/05/06 06:50:04;;;;;;;5.9;5.3;;;;;;;13.09;88.03418;941.2235;;;;
2022/05/06 06:52:33;;;;;;;5.8;5.2;;;;;;;13.12;87.77637;941.2444;;;;
2022/05/06 06:54:59;;;;;;;6.9;6.1;;;;;;;13.15;87.28711;941.3157;;;;
2022/05/06 06:57:30;;;;;;;7.4;6;;;;;;;13.17;86.85254;941.3022;;;;
2022/05/06 06:59:54;;;;;;;6.5;5.8;;;;;;;12.97;87.61719;941.3098;;;;
2022/05/06 07:02:21;;;;;;;6.8;6.1;;;;;;;13.2;87.43457;941.3082;;;;
2022/05/06 07:04:46;;;;;;;8.2;6;;;;;;;13.12;87.02734;941.218;;;;
2022/05/06 07:12:03;;;;;;;7.1;5.5;;;;;;;13.55;85.68848;941.1981;;;;
2022/05/06 07:14:33;;;;;;;7.5;6.7;;;;;;;13.51;85.54395;941.1788;;;;
2022/05/06 07:16:56;;;;;;;7.1;6.4;;;;;;;13.63;84.60059;941.1521;;;;
2022/05/06 07:19:22;;;;;;;7.9;6.3;;;;;;;13.38;85.26563;941.202;;;;
2022/05/06 07:21:49;;;;;;;7;6.3;;;;;;;13.49;85.25098;941.2098;;;;
2022/05/06 07:24:15;;;;;;;7.7;6.1;;;;;;;13.35;85.0752;941.218;;;;
2022/05/06 07:26:40;;;;;;;6.2;5.6;;;;;;;13.26;85.4707;941.2192;;;;
2022/05/06 07:29:07;;;;;;;7.1;6.2;;;;;;;13.31;85.30762;941.197;;;;
2022/05/06 07:31:32;;;;;;;7;6;;;;;;;13.35;85.4082;941.1572;;;;
2022/05/06 07:34:00;;;;;;;7;6.1;;;;;;;13.25;86.49121;941.1616;;;;
2022/05/06 07:36:26;;;;;;;6.4;5.5;;;;;;;13.32;85.54102;941.2266;;;;
2022/05/06 07:38:51;;;;;;;6.6;5.9;;;;;;;13.28;85.07227;941.3025;;;;
2022/05/06 07:41:17;;;;;;;7.2;5.9;;;;;;;13.23;85.48828;941.2455;;;;
2022/05/06 07:43:45;;;;;;;6.2;5.6;;;;;;;13.24;85.34082;941.1911;;;;
2022/05/06 07:46:10;;;;;;;5.8;5.2;;;;;;;13.17;85.11035;941.2278;;;;
2022/05/06 07:48:38;;;;;;;5.8;5.2;;;;;;;13.21;84.88574;941.2747;;;;
2022/05/06 07:51:04;;;;;;;5.7;5.1;;;;;;;13.15;84.62207;941.3109;;;;
2022/05/06 07:53:32;;;;;;;8;4.8;;;;;;;13.17;85.31738;941.311;;;;
2022/05/06 07:55:58;;;;;;;5.7;5.1;;;;;;;13.23;84.84473;941.3383;;;;
2022/05/06 07:58:25;;;;;;;7.4;5.6;;;;;;;13.14;85.01172;941.3148;;;;
2022/05/06 08:00:50;;;;;;;6.9;5.4;;;;;;;13.15;85.13965;941.3645;;;;
2022/05/06 08:05:45;;;;;;;6.9;5.3;;;;;;;13.21;85.49512;941.397;;;;
2022/05/06 08:08:12;;;;;;;5.8;5;;;;;;;13.29;85.5332;941.44;;;;
2022/05/06 08:10:37;;;;;;;5.2;4.7;;;;;;;13.27;85.39258;941.3528;;;;
2022/05/06 08:13:55;;;;;;;6;4.9;;;;;;;13.28;86.03906;941.4208;;;;
2022/05/06 08:16:23;;;;;;;5.5;4.8;;;;;;;13.35;86.20313;941.4124;;;;
2022/05/06 08:18:47;;;;;;;4.7;4.2;;;;;;;13.36;85.57129;941.3964;;;;
2022/05/06 08:21:13;;;;;;;4.8;4.3;;;;;;;13.51;85.12988;941.4235;;;;
2022/05/06 08:23:38;;;;;;;4.6;4.2;;;;;;;13.46;85.44043;941.4122;;;;
2022/05/06 08:26:05;;;;;;;4;3.7;;;;;;;13.54;85.07715;941.418;;;;
2022/05/06 08:28:30;;;;;;;4.4;3.7;;;;;;;;;;;;;
2022/05/06 08:30:56;;;;;;;3.9;3.5;;;;;;;;;;;;;
2022/05/06 08:33:23;;;;;;;3.5;3.2;;;;;;;;;;;;;
2022/05/06 08:35:48;;;;;;;3.1;2.8;;;;;;;;;;;;;
2022/05/06 08:38:15;;;;;;;2.9;2.7;;;;;;;;;;;;;
2022/05/06 08:40:39;;;;;;;2.7;2.4;;;;;;;;;;;;;
2022/05/06 08:43:04;;;;;;;2.7;2.1;;;;;;;;;;;;;
2022/05/06 08:52:46;;;;;;;2.3;1.8;;;;;;;;;;;;;
2022/05/06 08:55:11;;;;;;;2.1;1.9;;;;;;;;;;;;;
2022/05/06 08:57:36;;;;;;;2.4;1.8;;;;;;;;;;;;;
2022/05/06 09:00:01;;;;;;;2.2;2;;;;;;;;;;;;;
2022/05/06 09:02:28;;;;;;;2.8;2.2;;;;;;;;;;;;;
2022/05/06 09:04:53;;;;;;;3.4;2.2;;;;;;;;;;;;;
2022/05/06 09:07:19;;;;;;;3.1;2.4;;;;;;;;;;;;;
2022/05/06 09:09:45;;;;;;;2.1;1.9;;;;;;;;;;;;;
2022/05/06 09:17:05;;;;;;;2;1.8;;;;;;;;;;;;;
2022/05/06 09:19:25;;;;;;;2.3;2.1;;;;;;;;;;;;;
2022/05/06 09:21:50;;;;;;;1.8;1.7;;;;;;;;;;;;;
2022/05/06 09:24:15;;;;;;;2.3;2.1;;;;;;;;;;;;;
2022/05/06 09:26:42;;;;;;;1.9;1.8;;;;;;;;;;;;;
2022/05/06 09:29:07;;;;;;;2;1.9;;;;;;;;;;;;;
2022/05/06 09:31:34;;;;;;;2.2;2;;;;;;;;;;;;;
2022/05/06 09:33:59;;;;;;;1.9;1.8;;;;;;;;;;;;;
2022/05/06 09:36:27;;;;;;;1.9;1.8;;;;;;;;;;;;;
2022/05/06 09:38:51;;;;;;;2.4;1.8;;;;;;;;;;;;;
2022/05/06 09:41:16;;;;;;;1.7;1.6;;;;;;;;;;;;;
2022/05/06 09:43:42;;;;;;;2.1;1.9;;;;;;;;;;;;;
2022/05/06 09:46:10;;;;;;;1.9;1.8;;;;;;;;;;;;;
2022/05/06 09:48:33;;;;;;;1.7;1.6;;;;;;;;;;;;;
2022/05/06 09:51:00;;;;;;;2.5;1.8;;;;;;;;;;;;;
2022/05/06 09:53:24;;;;;;;1.8;1.6;;;;;;;;;;;;;
2022/05/06 09:55:49;;;;;;;3.1;1.7;;;;;;;;;;;;;
2022/05/06 09:58:15;;;;;;;2.2;1.9;;;;;;;;;;;;;
2022/05/06 10:00:41;;;;;;;1.6;1.5;;;;;;;;;;;;;
2022/05/06 10:03:06;;;;;;;2.1;1.6;;;;;;;;;;;;;
2022/05/06 10:05:31;;;;;;;1.6;1.5;;;;;;;;;;;;;
2022/05/06 10:07:58;;;;;;;1.2;1.1;;;;;;;;;;;;;
2022/05/06 10:10:23;;;;;;;1.5;1.4;;;;;;;;;;;;;
2022/05/06 10:12:52;;;;;;;1.3;1.2;;;;;;;;;;;;;
2022/05/06 10:15:14;;;;;;;1.4;1.3;;;;;;;;;;;;;
2022/05/06 10:17:43;;;;;;;1.7;1.6;;;;;;;;;;;;;
2022/05/06 10:20:08;;;;;;;1.5;1.4;;;;;;;;;;;;;
2022/05/06 10:22:34;;;;;;;1.6;1.5;;;;;;;;;;;;;
2022/05/06 10:25:00;;;;;;;1.6;1.5;;;;;;;;;;;;;
2022/05/06 10:32:25;;;;;;;2.4;1.3;;;;;;;;;;;;;
2022/05/06 10:32:27;;;;;;;1.6;1.5;;;;;;;;;;;;;
2022/05/06 10:34:40;;;;;;;1.4;1.3;;;;;;;;;;;;;
2022/05/06 10:37:05;;;;;;;1.4;1.3;;;;;;;;;;;;;
2022/05/06 10:39:32;;;;;;;1.4;1.3;;;;;;;;;;;;;
2022/05/06 10:41:57;;;;;;;1.4;1.3;;;;;;;;;;;;;
2022/05/06 10:44:25;;;;;;;1.4;1.3;;;;;;;;;;;;;
2022/05/06 10:46:50;;;;;;;2.6;1.3;;;;;;;;;;;;;
2022/05/06 10:49:16;;;;;;;1.9;1.3;;;;;;;;;;;;;
2022/05/06 10:51:41;;;;;;;1.5;1.4;;;;;;;;;;;;;
2022/05/06 10:54:06;;;;;;;1.7;1.4;;;;;;;;;;;;;
2022/05/06 10:56:33;;;;;;;1.4;1.3;;;;;;;;;;;;;
2022/05/06 10:58:58;;;;;;;1.5;1.4;;;;;;;;;;;;;
2022/05/06 11:01:24;;;;;;;1.4;1.3;;;;;;;;;;;;;
2022/05/06 11:03:48;;;;;;;1.7;1.6;;;;;;;;;;;;;
2022/05/06 11:06:16;;;;;;;1.3;1.2;;;;;;;;;;;;;
2022/05/06 11:08:40;;;;;;;1.5;1.4;;;;;;;;;;;;;
2022/05/06 11:11:07;;;;;;;1.5;1.4;;;;;;;;;;;;;
2022/05/06 11:13:32;;;;;;;2;1.6;;;;;;;;;;;;;
2022/05/06 11:15:59;;;;;;;3.1;1.8;;;;;;;;;;;;;
2022/05/06 11:18:25;;;;;;;1.7;1.6;;;;;;;;;;;;;
2022/05/06 11:20:50;;;;;;;2.8;1.6;;;;;;;;;;;;;
2022/05/06 11:23:15;;;;;;;1.6;1.5;;;;;;;;;;;;;
2022/05/06 11:25:41;;;;;;;1.8;1.6;;;;;;;;;;;;;
2022/05/06 11:28:05;;;;;;;2.2;1.6;;;;;;;;;;;;;
2022/05/06 11:30:34;;;;;;;1.8;1.6;;;;;;;;;;;;;
2022/05/06 11:32:59;;;;;;;1.8;1.7;;;;;;;;;;;;;
2022/05/06 11:35:24;;;;;;;1.6;1.5;;;;;;;;;;;;;
2022/05/06 11:37:49;;;;;;;2.4;1.9;;;;;;;;;;;;;
2022/05/06 11:40:32;;;;;;;2.5;1.5;;;;;;;;;;;;;
2022/05/06 11:42:42;;;;;;;1.4;1.3;;;;;;;;;;;;;
2022/05/06 11:47:32;;;;;;;1.6;1.5;;;;;;;;;;;;;
2022/05/06 11:49:59;;;;;;;1.6;1.5;;;;;;;;;;;;;
2022/05/06 11:52:24;;;;;;;1.9;1.6;;;;;;;;;;;;;
2022/05/06 11:54:49;;;;;;;1.6;1.5;;;;;;;;;;;;;
2022/05/06 11:57:15;;;;;;;1.7;1.5;;;;;;;;;;;;;
2022/05/06 11:59:39;;;;;;;1.7;1.6;;;;;;;;;;;;;
2022/05/06 12:02:06;;;;;;;2.8;1.8;;;;;;;;;;;;;
2022/05/06 12:04:32;;;;;;;1.5;1.4;;;;;;;;;;;;;
2022/05/06 12:06:58;;;;;;;1.9;1.6;;;;;;;;;;;;;
2022/05/06 12:09:24;;;;;;;2.7;1.4;;;;;;;;;;;;;
2022/05/06 12:11:49;;;;;;;2.1;1.4;;;;;;;;;;;;;
2022/05/06 12:14:17;;;;;;;3.5;1.4;;;;;;;;;;;;;
2022/05/06 12:16:39;;;;;;;1.4;1.3;;;;;;;;;;;;;
2022/05/06 12:19:04;;;;;;;1.6;1.3;;;;;;;;;;;;;
2022/05/06 12:21:29;;;;;;;1.5;1.4;;;;;;;;;;;;;
2022/05/06 12:23:54;;;;;;;1.3;1.2;;;;;;;;;;;;;
2022/05/06 12:26:19;;;;;;;1.7;1.6;;;;;;;;;;;;;
2022/05/06 12:28:44;;;;;;;1.7;1.6;;;;;;;;;;;;;
2022/05/06 12:31:10;;;;;;;1.5;1.4;;;;;;;;;;;;;
2022/05/06 12:33:35;;;;;;;2.5;1.6;;;;;;;;;;;;;
2022/05/06 12:36:00;;;;;;;1.8;1.7;;;;;;;;;;;;;
2022/05/06 12:38:26;;;;;;;2.2;1.6;;;;;;;;;;;;;
2022/05/06 12:40:52;;;;;;;1.7;1.6;;;;;;;;;;;;;
2022/05/06 12:43:16;;;;;;;2.9;1.8;;;;;;;;;;;;;
2022/05/06 12:45:42;;;;;;;1.9;1.7;;;;;;;;;;;;;
2022/05/06 12:50:32;;;;;;;3.1;2;;;;;;;;;;;;;
2022/05/06 12:52:57;;;;;;;1.7;1.6;;;;;;;;;;;;;
2022/05/06 12:55:24;;;;;;;1.6;1.5;;;;;;;;;;;;;
2022/05/06 12:57:49;;;;;;;2.4;1.8;;;;;;;;;;;;;
2022/05/06 13:00:19;;;;;;;3.7;2;;;;;;;;;;;;;
2022/05/06 13:02:47;;;;;;;2.2;1.8;;;;;;;;;;;;;
2022/05/06 13:05:12;;;;;;;4;2.2;;;;;;;;;;;;;
2022/05/06 13:07:38;;;;;;;2.5;1.9;;;;;;;;;;;;;
2022/05/06 13:10:03;;;;;;;2.1;1.8;;;;;;;;;;;;;
2022/05/06 13:12:30;;;;;;;3.8;2.2;;;;;;;;;;;;;
2022/05/06 13:14:55;;;;;;;2.6;2.3;;;;;;;;;;;;;
2022/05/06 13:17:21;;;;;;;2.4;2;;;;;;;;;;;;;
2022/05/06 13:19:47;;;;;;;2.5;2.2;;;;;;;;;;;;;
2022/05/06 13:22:12;;;;;;;2.8;2.4;;;;;;;;;;;;;
2022/05/06 13:24:37;;;;;;;2.6;2.3;;;;;;;;;;;;;
2022/05/06 13:27:04;;;;;;;3.8;2.5;;;;;;;;;;;;;
2022/05/06 13:29:29;;;;;;;2.9;2.5;;;;;;;;;;;;;
2022/05/06 13:31:55;;;;;;;3.3;2.4;;;;;;;;;;;;;
2022/05/06 13:34:20;;;;;;;3.3;2.4;;;;;;;;;;;;;
2022/05/06 13:36:47;;;;;;;2.5;2.3;;;;;;;;;;;;;
2022/05/06 13:39:12;;;;;;;3.4;2.1;;;;;;;;;;;;;
2022/05/06 13:41:38;;;;;;;2.9;2.3;;;;;;;;;;;;;
2022/05/06 13:44:03;;;;;;;2.7;2.3;;;;;;;;;;;;;
2022/05/06 13:46:29;;;;;;;2.5;2.3;;;;;;;;;;;;;
2022/05/06 13:48:55;;;;;;;2.4;2;;;;;;;;;;;;;
2022/05/06 13:51:21;;;;;;;3.9;1.9;;;;;;;;;;;;;
2022/05/06 13:53:46;;;;;;;2.8;2.1;;;;;;;;;;;;;
2022/05/06 14:01:02;;;;;;;2.6;2.3;;;;;;;;;;;;;
2022/05/06 14:03:30;;;;;;;3.5;2.6;;;;;;;;;;;;;
2022/05/06 14:05:55;;;;;;;3.6;2.5;;;;;;;;;;;;;
2022/05/06 14:08:20;;;;;;;3.2;2.9;;;;;;;;;;;;;
2022/05/06 14:10:45;;;;;;;3.3;2.8;;;;;;;;;;;;;
2022/05/06 14:13:11;;;;;;;3.1;2.8;;;;;;;;;;;;;
2022/05/06 14:15:36;;;;;;;2.6;2.4;;;;;;;;;;;;;
2022/05/06 14:18:02;;;;;;;2.8;2.1;;;;;;;;;;;;;
2022/05/06 14:20:27;;;;;;;3;2.1;;;;;;;;;;;;;
2022/05/06 14:22:52;;;;;;;2.6;2.4;;;;;;;;;;;;;
2022/05/06 14:25:17;;;;;;;2.4;2.2;;;;;;;;;;;;;
2022/05/06 14:27:42;;;;;;;2.2;2;;;;;;;;;;;;;
2022/05/06 14:30:10;;;;;;;2.6;2.3;;;;;;;;;;;;;
2022/05/06 14:32:35;;;;;;;3.4;2.7;;;;;;;;;;;;;
2022/05/06 14:35:16;;;;;;;2.9;2.7;;;;;;;;;;;;;
2022/05/06 14:37:26;;;;;;;3.1;2.8;;;;;;;;;;;;;
2022/05/06 14:39:52;;;;;;;3.4;2.8;;;;;;;;;;;;;
2022/05/06 14:42:16;;;;;;;3.6;3;;;;;;;;;;;;;
2022/05/06 14:44:43;;;;;;;3.4;2.9;;;;;;;;;;;;;
2022/05/06 14:47:09;;;;;;;3.7;3.3;;;;;;;;;;;;;
2022/05/06 14:49:34;;;;;;;3.7;3.3;;;;;;;;;;;;;
2022/05/06 14:52:00;;;;;;;3.9;3.5;;;;;;;;;;;;;
2022/05/06 14:54:26;;;;;;;4.6;3.9;;;;;;;;;;;;;
2022/05/06 14:57:06;;;;;;;4.5;4.1;;;;;;;;;;;;;
2022/05/06 14:59:16;;;;;;;5.2;4;;;;;;;;;;;;;
2022/05/06 15:01:46;;;;;;;5.4;4.2;;;;;;;;;;;;;
2022/05/06 15:04:09;;;;;;;4.8;4;;;;;;;;;;;;;
2022/05/06 15:06:35;;;;;;;3.7;3.3;;;;;;;;;;;;;
2022/05/06 15:09:00;;;;;;;4;3.6;;;;;;;;;;;;;
2022/05/06 15:11:27;;;;;;;4;3.6;;;;;;;;;;;;;
2022/05/06 15:13:52;;;;;;;4.4;3.9;;;;;;;;;;;;;
2022/05/06 15:16:17;;;;;;;4.2;3.8;;;;;;;;;;;;;
2022/05/06 15:21:08;;;;;;;4.9;4.4;;;;;;;;;;;;;
2022/05/06 15:23:35;;;;;;;6.6;6;;;;;;;;;;;;;
2022/05/06 15:26:00;;;;;;;7.4;6.4;;;;;;;;;;;;;
2022/05/06 15:28:26;;;;;;;7.9;6.9;;;;;;;;;;;;;
2022/05/06 15:30:51;;;;;;;7.9;7.1;;;;;;;;;;;;;
2022/05/06 15:33:17;;;;;;;9.6;8;;;;;;;;;;;;;
2022/05/06 15:35:42;;;;;;;10.1;8.2;;;;;;;;;;;;;
2022/05/06 15:38:09;;;;;;;9.7;7.9;;;;;;;;;;;;;
2022/05/06 15:40:34;;;;;;;10.6;8.4;;;;;;;;;;;;;
2022/05/06 15:43:01;;;;;;;12;9.8;;;;;;;;;;;;;
2022/05/06 15:45:26;;;;;;;14.5;11.2;;;;;;;;;;;;;
2022/05/06 15:47:57;;;;;;;12.7;10.8;;;;;;;;;;;;;
2022/05/06 15:50:17;;;;;;;13.9;11.9;;;;;;;;;;;;;
2022/05/06 15:52:45;;;;;;;16.6;13.9;;;;;;;;;;;;;
2022/05/06 15:55:09;;;;;;;14.9;12.8;;;;;;;;;;;;;
2022/05/06 15:57:34;;;;;;;13.8;11.7;;;;;;;;;;;;;
2022/05/06 16:00:02;;;;;;;13.4;11.6;;;;;;;;;;;;;
2022/05/06 16:02:25;;;;;;;17.2;14.6;;;;;;;;;;;;;
2022/05/06 16:04:50;;;;;;;15;13.2;;;;;;;;;;;;;
2022/05/06 16:07:15;;;;;;;15.4;12.7;;;;;;;;;;;;;
2022/05/06 16:09:41;;;;;;;15.7;13.4;;;;;;;;;;;;;
2022/05/06 16:12:06;;;;;;;15.9;12.5;;;;;;;;;;;;;
2022/05/06 16:16:57;;;;;;;14.7;12.2;;;;;;;;;;;;;
2022/05/06 16:19:23;;;;;;;17.1;13.5;;;;;;;;;;;;;
2022/05/06 16:21:48;;;;;;;16.4;13.5;;;;;;;;;;;;;
2022/05/06 16:24:14;;;;;;;16.4;14.1;;;;;;;;;;;;;
2022/05/06 16:26:39;;;;;;;16.1;13.9;;;;;;;;;;;;;
2022/05/06 16:29:05;;;;;;;17.3;14.2;;;;;;;;;;;;;
2022/05/06 16:31:31;;;;;;;18.3;14.2;;;;;;;;;;;;;
2022/05/06 16:38:48;;;;;;;15.3;13.7;;;;;;;;;;;;;
2022/05/06 16:41:15;;;;;;;15.7;13.4;;;;;;;;;;;;;
2022/05/06 16:43:43;;;;;;;17.1;14.5;;;;;;;;;;;;;
2022/05/06 16:46:05;;;;;;;17.1;14.3;;;;;;;;;;;;;
2022/05/06 16:48:31;;;;;;;14.8;13.1;;;;;;;;;;;;;
2022/05/06 16:50:56;;;;;;;15.1;13.1;;;;;;;;;;;;;
2022/05/06 16:53:22;;;;;;;14.2;12.6;;;;;;;;;;;;;
2022/05/06 16:55:47;;;;;;;13.9;12;;;;;;;;;;;;;
2022/05/06 16:58:14;;;;;;;11.5;10.3;;;;;;;;;;;;;
2022/05/06 17:00:39;;;;;;;12.7;10;;;;;;;;;;;;;
2022/05/06 17:03:06;;;;;;;12.5;10.6;;;;;;;;;;;;;
2022/05/06 17:05:31;;;;;;;12.2;10.8;;;;;;;;;;;;;
2022/05/06 17:07:57;;;;;;;12.2;10.9;;;;;;;;;;;;;
2022/05/06 17:10:23;;;;;;;11.6;10.4;;;;;;;;;;;;;
2022/05/06 17:12:49;;;;;;;11.5;10.3;;;;;;;;;;;;;
2022/05/06 17:15:18;;;;;;;12.7;10.6;;;;;;;;;;;;;
2022/05/06 17:17:40;;;;;;;11.4;10.2;;;;;;;;;;;;;
2022/05/06 17:20:09;;;;;;;12.7;10.9;;;;;;;;;;;;;
2022/05/06 17:22:37;;;;;;;12.5;11;;;;;;;;;;;;;
2022/05/06 17:25:02;;;;;;;12.3;10.8;;;;;;;;;;;;;
2022/05/06 17:27:27;;;;;;;12.3;10.5;;;;;;;;;;;;;
2022/05/06 17:29:52;;;;;;;11.6;9.9;;;;;;;;;;;;;
2022/05/06 17:32:18;;;;;;;11.9;10.3;;;;;;;;;;;;;
2022/05/06 17:34:44;;;;;;;11.1;9.9;;;;;;;;;;;;;
2022/05/06 17:37:10;;;;;;;12.6;11;;;;;;;;;;;;;
2022/05/06 17:39:35;;;;;;;11.9;10.4;;;;;;;;;;;;;
2022/05/06 17:42:01;;;;;;;12.3;10.9;;;;;;;;;;;;;
2022/05/06 17:44:26;;;;;;;12.5;11;;;;;;;;;;;;;
2022/05/06 17:46:52;;;;;;;12.7;11.4;;;;;;;;;;;;;
2022/05/06 17:49:17;;;;;;;15.1;13.1;;;;;;;;;;;;;
2022/05/06 17:51:43;;;;;;;18.8;13.4;;;;;;;;;;;;;
2022/05/06 17:54:09;;;;;;;13.6;12.1;;;;;;;;;;;;;
2022/05/06 17:56:35;;;;;;;13.9;12.1;;;;;;;;;;;;;
2022/05/06 17:58:59;;;;;;;13.3;11.2;;;;;;;;;;;;;
2022/05/06 18:01:27;;;;;;;13;11.1;;;;;;;;;;;;;
2022/05/06 18:03:52;;;;;;;12.8;11.4;;;;;;;;;;;;;
2022/05/06 18:06:18;;;;;;;13.6;12;;;;;;;;;;;;;
2022/05/06 18:08:43;;;;;;;13.5;11.7;;;;;;;;;;;;;
2022/05/06 18:11:10;;;;;;;17;14.2;;;;;;;;;;;;;
2022/05/06 18:13:35;;;;;;;17.2;15.1;;;;;;;;;;;;;
2022/05/06 18:16:01;;;;;;;35.5;21.6;;;;;;;;;;;;;
2022/05/06 18:18:28;;;;;;;21.9;15.9;;;;;;;;;;;;;
2022/05/06 18:20:51;;;;;;;17.1;14.2;;;;;;;;;;;;;
2022/05/06 18:23:17;;;;;;;15.5;12.4;;;;;;;;;;;;;
2022/05/06 18:25:42;;;;;;;14.3;11.6;;;;;;;;;;;;;
2022/05/06 18:28:07;;;;;;;13.9;11.1;;;;;;;;;;;;;
2022/05/06 18:30:32;;;;;;;16.2;12.4;;;;;;;;;;;;;
2022/05/06 18:35:26;;;;;;;13.3;11.5;;;;;;;;;;;;;
2022/05/06 18:37:52;;;;;;;14.7;11.4;;;;;;;;;;;;;
2022/05/06 18:40:17;;;;;;;15.9;13;;;;;;;;;;;;;
2022/05/06 18:42:46;;;;;;;14.1;12.6;;;;;;;;;;;;;
2022/05/06 18:45:11;;;;;;;15.7;13.8;;;;;;;;;;;;;
2022/05/06 18:47:38;;;;;;;15.3;13.6;;;;;;;;;;;;;
2022/05/06 18:50:03;;;;;;;16.4;13.7;;;;;;;;;;;;;
2022/05/06 18:52:31;;;;;;;15;13.1;;;;;;;;;;;;;
2022/05/06 18:55:00;;;;;;;16;13.7;;;;;;;;;;;;;
2022/05/06 18:57:25;;;;;;;16.1;13.4;;;;;;;;;;;;;
2022/05/06 18:59:51;;;;;;;14.6;12.6;;;;;;;;;;;;;
2022/05/06 19:02:17;;;;;;;15.3;12.5;;;;;;;;;;;;;
2022/05/06 19:04:45;;;;;;;15.7;14;;;;;;;;;;;;;
2022/05/06 19:07:08;;;;;;;23.2;20.8;;;;;;;;;;;;;
2022/05/06 19:09:33;;;;;;;17;14;;;;;;;;;;;;;
2022/05/06 19:11:59;;;;;;;15.6;13.2;;;;;;;;;;;;;
2022/05/06 19:14:26;;;;;;;14.5;12.7;;;;;;;;;;;;;
2022/05/06 19:16:50;;;;;;;17.4;13.5;;;;;;;;;;;;;
2022/05/06 19:19:18;;;;;;;16.2;13.5;;;;;;;;;;;;;
2022/05/06 19:24:49;;;;;;;15.2;12.8;;;;;;;;;;;;;
2022/05/06 19:26:34;;;;;;;14;11.6;;;;;;;;;;;;;
2022/05/06 19:28:59;;;;;;;14.5;12.1;;;;;;;;;;;;;
2022/05/06 19:31:28;;;;;;;15.5;11.6;;;;;;;;;;;;;
2022/05/06 19:33:53;;;;;;;14.2;11.8;;;;;;;;;;;;;
2022/05/06 19:36:19;;;;;;;14.8;12.7;;;;;;;;;;;;;
2022/05/06 19:38:44;;;;;;;16.9;13.1;;;;;;;;;;;;;
2022/05/06 19:41:12;;;;;;;15.8;12.4;;;;;;;;;;;;;
2022/05/06 19:43:37;;;;;;;13.3;11.7;;;;;;;;;;;;;
2022/05/06 19:46:04;;;;;;;15.6;12.2;;;;;;;;;;;;;
2022/05/06 19:48:29;;;;;;;14.8;11.6;;;;;;;;;;;;;
2022/05/06 19:50:56;;;;;;;12.5;10.7;;;;;;;;;;;;;
2022/05/06 19:53:19;;;;;;;12.3;9.9;;;;;;;;;;;;;
2022/05/06 19:56:04;;;;;;;13.9;10.4;;;;;;;;;;;;;
2022/05/06 19:58:30;;;;;;;14.6;10.9;;;;;;;;;;;;;
2022/05/06 20:00:55;;;;;;;13.3;10.5;;;;;;;;;;;;;
2022/05/06 20:03:26;;;;;;;12.6;10.7;;;;;;;;;;;;;
2022/05/06 20:05:53;;;;;;;12.7;10.2;;;;;;;;;;;;;
2022/05/06 20:08:20;;;;;;;12.5;10.6;;;;;;;;;;;;;
2022/05/06 20:10:45;;;;;;;13.2;11.1;;;;;;;;;;;;;
2022/05/06 20:13:10;;;;;;;14.9;11.2;;;;;;;;;;;;;
2022/05/06 20:15:39;;;;;;;12.5;10.6;;;;;;;;;;;;;
2022/05/06 20:18:04;;;;;;;15.5;12;;;;;;;;;;;;;
2022/05/06 20:20:29;;;;;;;13.3;10.7;;;;;;;;;;;;;
2022/05/06 20:22:54;;;;;;;12.9;10.8;;;;;;;;;;;;;
2022/05/06 20:25:20;;;;;;;13.3;10.1;;;;;;;;;;;;;
2022/05/06 20:27:45;;;;;;;11;8.9;;;;;;;;;;;;;
2022/05/06 20:30:12;;;;;;;10.5;9;;;;;;;;;;;;;
2022/05/06 20:32:37;;;;;;;10.6;9.3;;;;;;;;;;;;;
2022/05/06 20:35:04;;;;;;;10;9;;;;;;;;;;;;;
2022/05/06 20:37:28;;;;;;;9.8;8.7;;;;;;;;;;;;;
2022/05/06 20:39:55;;;;;;;9.5;8.3;;;;;;;;;;;;;
2022/05/06 20:42:20;;;;;;;11.2;9;;;;;;;;;;;;;
2022/05/06 20:44:46;;;;;;;9.5;8.5;;;;;;;;;;;;;
2022/05/06 20:47:11;;;;;;;8.3;7.4;;;;;;;;;;;;;
2022/05/06 20:49:37;;;;;;;9.6;7.8;;;;;;;;;;;;;
2022/05/06 20:52:02;;;;;;;10.7;7.9;;;;;;;;;;;;;
2022/05/06 20:54:28;;;;;;;9.5;8;;;;;;;;;;;;;
2022/05/06 20:59:21;;;;;;;11.7;8.6;;;;;;;;;;;;;
2022/05/06 21:01:43;;;;;;;10.5;8.7;;;;;;;;;;;;;